Time;durP1;ratioP1;P1;durP2;ratioP2;P2;SDS_P1;SDS_P2;PMS_P1;PMS_P2;Temp;Humidity;BMP_temperature;BMP_pressure;BME280_temperature;BME280_humidity;BME280_pressure;Samples;Min_cycle;Max_cycle;Signal;HPM_P1;HPM_P2
2024/01/01 00:01:38;;;;;;;3.53;3.33;;;;;;;6.23;100.00;99603.38;5077521;28;20196;-67
2024/01/01 00:04:05;;;;;;;19.67;3.53;;;;;;;6.21;100.00;99591.50;5074065;28;20246;-68
2024/01/01 00:06:33;;;;;;;8.47;5.37;;;;;;;6.19;100.00;99596.63;5073067;28;20621;-67
2024/01/01 00:09:02;;;;;;;5.77;4.40;;;;;;;6.18;100.00;99594.91;5075822;28;20250;-68
2024/01/01 00:11:29;;;;;;;4.73;3.23;;;;;;;6.18;100.00;99594.06;5073989;28;21707;-67
2024/01/01 00:13:56;;;;;;;8.60;4.03;;;;;;;6.16;100.00;99596.66;5074137;28;20246;-68
2024/01/01 00:16:22;;;;;;;9.33;4.67;;;;;;;6.15;100.00;99594.94;5074167;28;20199;-68
2024/01/01 00:18:49;;;;;;;5.20;2.47;;;;;;;6.13;100.00;99590.75;5073877;28;20282;-68
2024/01/01 00:21:16;;;;;;;6.67;3.30;;;;;;;6.13;100.00;99598.38;5074120;28;20200;-68
2024/01/01 00:23:42;;;;;;;6.60;3.10;;;;;;;6.10;100.00;99596.72;5073746;28;20200;-67
2024/01/01 00:26:10;;;;;;;7.60;5.97;;;;;;;6.08;100.00;99595.84;5081237;28;20243;-69
2024/01/01 00:28:37;;;;;;;2.40;2.17;;;;;;;6.07;100.00;99586.56;5074060;28;20196;-68
2024/01/01 00:31:04;;;;;;;2.37;2.20;;;;;;;6.05;100.00;99595.88;5072342;28;20725;-68
2024/01/01 00:33:31;;;;;;;6.13;3.57;;;;;;;6.05;100.00;99597.59;5073949;28;20207;-68
2024/01/01 00:35:58;;;;;;;3.50;2.97;;;;;;;6.05;100.00;99595.88;5073675;28;20195;-68
2024/01/01 00:38:24;;;;;;;4.50;2.50;;;;;;;6.02;100.00;99589.97;5076344;28;20211;-68
2024/01/01 00:40:51;;;;;;;4.53;3.80;;;;;;;6.01;100.00;99594.22;5073380;28;20249;-69
2024/01/01 00:43:19;;;;;;;6.73;2.67;;;;;;;6.00;100.00;99594.25;5073545;28;20200;-68
2024/01/01 00:45:46;;;;;;;2.83;2.63;;;;;;;5.99;100.00;99587.47;5077926;28;20192;-69
2024/01/01 00:48:13;;;;;;;8.87;3.17;;;;;;;5.98;100.00;99585.78;5072256;28;20654;-68
2024/01/01 00:50:39;;;;;;;5.07;3.53;;;;;;;5.99;100.00;99588.31;5073633;28;20204;-68
2024/01/01 00:53:06;;;;;;;5.83;3.67;;;;;;;5.96;100.00;99588.34;5073026;28;20281;-68
2024/01/01 00:55:33;;;;;;;8.63;3.43;;;;;;;5.94;100.00;99579.88;5073249;28;20277;-68
2024/01/01 00:57:59;;;;;;;4.63;3.60;;;;;;;5.90;100.00;99580.75;5072943;28;20215;-68
2024/01/01 01:00:27;;;;;;;4.87;4.57;;;;;;;5.91;100.00;99586.69;5073817;28;20569;-68
2024/01/01 01:02:54;;;;;;;4.40;3.80;;;;;;;5.91;100.00;99579.91;5073003;28;20200;-68
2024/01/01 01:05:22;;;;;;;7.30;3.33;;;;;;;5.92;100.00;99571.41;5067525;28;20196;-68
2024/01/01 01:07:49;;;;;;;3.60;3.40;;;;;;;5.93;100.00;99573.09;5073366;28;20196;-68
2024/01/01 01:10:16;;;;;;;3.43;3.07;;;;;;;5.93;100.00;99573.09;5073051;28;20734;-68
2024/01/01 01:12:43;;;;;;;14.77;3.50;;;;;;;5.88;100.00;99569.72;5073118;28;20206;-68
2024/01/01 01:15:10;;;;;;;4.47;4.07;;;;;;;5.80;100.00;99561.31;5073106;28;20695;-67
2024/01/01 01:17:38;;;;;;;5.10;4.70;;;;;;;5.78;100.00;99573.22;5073116;28;20624;-68
2024/01/01 01:20:06;;;;;;;3.10;2.23;;;;;;;5.56;100.00;99564.03;5076648;28;20200;-66
2024/01/01 01:22:33;;;;;;;2.17;2.07;;;;;;;5.45;100.00;99563.28;5072831;28;20200;-68
2024/01/01 01:24:59;;;;;;;3.30;2.17;;;;;;;5.47;100.00;99564.09;5072863;28;20638;-68
2024/01/01 01:27:29;;;;;;;1.57;1.57;;;;;;;5.46;100.00;99562.44;5072868;28;20257;-68
2024/01/01 01:29:56;;;;;;;1.47;1.47;;;;;;;5.47;100.00;99556.47;5072709;28;20200;-68
2024/01/01 01:32:22;;;;;;;3.40;3.23;;;;;;;5.47;100.00;99556.47;5072444;28;20671;-68
2024/01/01 01:34:51;;;;;;;1.13;1.13;;;;;;;5.44;100.00;99556.50;5072901;28;20200;-68
2024/01/01 01:37:18;;;;;;;2.03;1.53;;;;;;;5.45;100.00;99553.13;5072515;28;20227;-68
2024/01/01 01:39:46;;;;;;;1.20;1.17;;;;;;;5.47;100.00;99556.47;5080921;28;20212;-68
2024/01/01 01:42:12;;;;;;;1.30;1.30;;;;;;;5.46;100.00;99554.81;5072113;28;20200;-68
2024/01/01 01:44:39;;;;;;;1.60;1.60;;;;;;;5.44;100.00;99561.59;5072407;28;20569;-68
2024/01/01 01:47:06;;;;;;;1.17;1.17;;;;;;;5.39;100.00;99548.94;5072367;28;20200;-68
2024/01/01 01:49:33;;;;;;;1.40;1.33;;;;;;;5.40;100.00;99558.22;5072213;28;20192;-69
2024/01/01 01:52:03;;;;;;;5.70;1.47;;;;;;;5.37;100.00;99562.47;5072309;28;20227;-68
2024/01/01 01:54:30;;;;;;;2.03;1.93;;;;;;;5.36;100.00;99548.09;5071626;28;20287;-68
2024/01/01 01:56:57;;;;;;;1.60;1.60;;;;;;;5.36;100.00;99553.19;5076903;28;20256;-68
2024/01/01 01:59:24;;;;;;;1.07;1.07;;;;;;;5.32;100.00;99546.41;5071978;28;20603;-69
2024/01/01 02:01:51;;;;;;;1.20;1.20;;;;;;;5.32;100.00;99546.41;5072378;28;20743;-68
2024/01/01 02:04:18;;;;;;;1.17;1.17;;;;;;;5.32;100.00;99547.28;5072012;28;20200;-68
2024/01/01 02:06:45;;;;;;;1.23;1.23;;;;;;;5.28;100.00;99543.91;5072111;28;20265;-68
2024/01/01 02:09:13;;;;;;;1.90;1.73;;;;;;;5.20;100.00;99538.00;5072065;28;20206;-68
2024/01/01 02:11:40;;;;;;;0.93;0.93;;;;;;;5.25;100.00;99535.44;5072504;28;20208;-68
2024/01/01 02:14:09;;;;;;;1.20;1.20;;;;;;;5.13;100.00;99522.84;5070947;28;20200;-68
2024/01/01 02:16:36;;;;;;;1.30;1.27;;;;;;;5.22;100.00;99533.78;5071785;28;20569;-67
2024/01/01 02:19:04;;;;;;;0.80;0.80;;;;;;;5.19;100.00;99531.25;5071824;28;20215;-67
2024/01/01 02:21:31;;;;;;;2.43;2.33;;;;;;;5.21;100.00;99528.69;5071898;28;20265;-68
2024/01/01 02:23:59;;;;;;;0.60;0.60;;;;;;;5.18;100.00;99529.56;5071603;28;20196;-68
2024/01/01 02:26:26;;;;;;;1.03;1.03;;;;;;;5.17;100.00;99530.41;5071967;28;20257;-68
2024/01/01 02:28:52;;;;;;;2.27;2.23;;;;;;;5.16;100.00;99530.44;5071527;28;20222;-68
2024/01/01 02:31:19;;;;;;;1.70;1.70;;;;;;;5.14;100.00;99535.50;5071697;28;20246;-67
2024/01/01 02:33:46;;;;;;;1.13;1.13;;;;;;;5.12;100.00;99529.59;5071856;28;20261;-68
2024/01/01 02:36:13;;;;;;;1.63;1.53;;;;;;;5.11;100.00;99529.59;5071379;28;20196;-68
2024/01/01 02:38:39;;;;;;;1.40;1.40;;;;;;;5.09;100.00;99528.78;5075451;28;20569;-68
2024/01/01 02:41:07;;;;;;;0.93;0.93;;;;;;;5.07;100.00;99525.41;5071400;28;20231;-68
2024/01/01 02:43:34;;;;;;;1.03;1.03;;;;;;;5.04;100.00;99526.25;5071612;28;20196;-68
2024/01/01 02:46:01;;;;;;;1.27;1.27;;;;;;;5.04;100.00;99517.81;5071544;28;20668;-68
2024/01/01 02:48:28;;;;;;;2.10;1.67;;;;;;;5.02;100.00;99516.97;5071733;28;20241;-68
2024/01/01 02:50:54;;;;;;;1.03;1.03;;;;;;;5.01;100.00;99510.22;5071357;28;20196;-68
2024/01/01 02:53:21;;;;;;;1.33;1.33;;;;;;;4.98;100.00;99513.59;5071037;28;20277;-68
2024/01/01 02:55:48;;;;;;;1.23;1.23;;;;;;;4.97;100.00;99504.31;5071398;28;20249;-68
2024/01/01 02:58:16;;;;;;;2.70;2.60;;;;;;;4.97;100.00;99504.31;5071379;28;20261;-67
2024/01/01 03:00:46;;;;;;;0.80;0.80;;;;;;;4.97;100.00;99504.31;5071375;28;20666;-67
2024/01/01 03:03:13;;;;;;;1.77;1.73;;;;;;;4.93;100.00;99505.16;5067407;28;20291;-68
2024/01/01 03:05:40;;;;;;;1.50;1.50;;;;;;;4.95;100.00;99506.00;5071515;28;20622;-68
2024/01/01 03:08:21;;;;;;;1.57;1.57;;;;;;;4.87;100.00;99506.91;5071361;28;20589;-67
2024/01/01 03:10:47;;;;;;;2.20;2.13;;;;;;;4.82;100.00;99501.84;5071383;28;20199;-68
2024/01/01 03:13:15;;;;;;;0.80;0.80;;;;;;;4.67;100.00;99484.16;5071479;28;20249;-67
2024/01/01 03:15:42;;;;;;;2.67;2.60;;;;;;;4.72;100.00;99503.56;5071228;28;20630;-68
2024/01/01 03:18:11;;;;;;;1.17;1.17;;;;;;;4.68;100.00;99501.09;5060323;28;20204;-68
2024/01/01 03:20:37;;;;;;;1.20;1.20;;;;;;;4.64;100.00;99499.41;5071329;28;20270;-68
2024/01/01 03:23:04;;;;;;;2.13;2.13;;;;;;;4.63;100.00;99493.47;5071275;28;20204;-68
2024/01/01 03:25:31;;;;;;;1.37;1.37;;;;;;;4.51;100.00;99500.31;5071211;28;20249;-68
2024/01/01 03:27:58;;;;;;;0.80;0.80;;;;;;;4.49;100.00;99494.41;5076163;28;20200;-68
2024/01/01 03:30:26;;;;;;;2.00;2.00;;;;;;;4.46;100.00;99504.56;5071019;28;20188;-68
2024/01/01 03:32:53;;;;;;;2.17;2.17;;;;;;;4.43;100.00;99489.31;5071068;28;20208;-68
2024/01/01 03:35:20;;;;;;;0.80;0.80;;;;;;;4.42;100.00;99500.34;5071117;28;20325;-67
2024/01/01 03:37:47;;;;;;;1.60;1.60;;;;;;;4.40;100.00;99492.72;5071038;28;20561;-68
2024/01/01 03:40:14;;;;;;;1.47;1.47;;;;;;;4.30;100.00;99475.84;5071252;28;20262;-68
2024/01/01 03:42:41;;;;;;;1.57;1.57;;;;;;;4.39;100.00;99492.75;5071042;28;20200;-68
2024/01/01 03:45:09;;;;;;;1.00;1.00;;;;;;;4.40;100.00;99494.41;5071046;28;20195;-67
2024/01/01 03:47:37;;;;;;;1.30;1.30;;;;;;;4.31;100.00;99477.53;5070924;28;20193;-68
2024/01/01 03:50:06;;;;;;;2.20;2.20;;;;;;;4.38;100.00;99486.81;5070783;28;20266;-68
2024/01/01 03:52:33;;;;;;;1.30;1.30;;;;;;;4.39;100.00;99490.22;5070714;28;20236;-67
2024/01/01 03:54:59;;;;;;;3.03;2.87;;;;;;;4.38;100.00;99493.59;5070936;28;20245;-67
2024/01/01 03:57:27;;;;;;;4.47;4.13;;;;;;;4.28;100.00;99481.78;5070868;28;20192;-68
2024/01/01 03:59:54;;;;;;;3.23;2.10;;;;;;;4.36;100.00;99492.75;5070848;28;20277;-68
2024/01/01 04:02:20;;;;;;;2.33;2.23;;;;;;;4.36;100.00;99497.84;5070828;28;20200;-67
2024/01/01 04:04:49;;;;;;;1.03;1.03;;;;;;;4.34;100.00;99489.38;5070899;28;20249;-68
2024/01/01 04:07:17;;;;;;;1.97;1.97;;;;;;;4.31;100.00;99495.31;5074613;28;20236;-67
2024/01/01 04:09:44;;;;;;;1.70;1.70;;;;;;;4.28;100.00;99491.94;5075520;28;20276;-68
2024/01/01 04:12:11;;;;;;;1.07;1.07;;;;;;;4.18;100.00;99489.44;5074086;28;20196;-67
2024/01/01 04:14:37;;;;;;;1.40;1.40;;;;;;;4.09;100.00;99484.38;5074065;28;20204;-67
2024/01/01 04:17:04;;;;;;;1.40;1.40;;;;;;;4.11;100.00;99482.69;5074152;28;20199;-70
2024/01/01 04:19:31;;;;;;;1.00;1.00;;;;;;;4.09;100.00;99484.38;5074710;28;20228;-68
2024/01/01 04:21:59;;;;;;;1.30;1.30;;;;;;;3.92;100.00;99463.28;5073894;28;20254;-68
2024/01/01 04:24:25;;;;;;;1.50;1.50;;;;;;;4.06;100.00;99479.34;5073818;28;20241;-67
2024/01/01 04:26:52;;;;;;;1.00;1.00;;;;;;;4.06;100.00;99474.25;5073626;28;20207;-67
2024/01/01 04:29:19;;;;;;;2.23;2.17;;;;;;;4.04;100.00;99475.94;5073807;28;20250;-68
2024/01/01 04:31:46;;;;;;;2.60;2.50;;;;;;;3.85;100.00;99456.53;5073584;28;20326;-68
2024/01/01 04:34:13;;;;;;;1.10;1.10;;;;;;;4.03;100.00;99489.47;5073888;28;20196;-68
2024/01/01 04:36:41;;;;;;;1.80;1.80;;;;;;;3.95;100.00;99475.13;5075073;28;20196;-68
2024/01/01 04:39:09;;;;;;;2.10;1.97;;;;;;;3.99;100.00;99487.78;5077470;28;20297;-68
2024/01/01 04:41:36;;;;;;;2.17;2.07;;;;;;;3.96;100.00;99481.88;5073549;28;20249;-68
2024/01/01 04:44:03;;;;;;;1.40;1.40;;;;;;;3.94;100.00;99474.25;5065469;28;20196;-68
2024/01/01 04:46:30;;;;;;;3.80;2.20;;;;;;;3.90;100.00;99477.69;5073605;28;20619;-68
2024/01/01 04:48:57;;;;;;;0.90;0.90;;;;;;;3.87;100.00;99472.63;5073558;28;20200;-68
2024/01/01 04:51:23;;;;;;;2.50;2.50;;;;;;;3.86;100.00;99476.00;5073015;28;20228;-66
2024/01/01 04:53:50;;;;;;;1.37;1.37;;;;;;;3.84;100.00;99467.56;5073524;28;20744;-68
2024/01/01 04:56:21;;;;;;;1.77;1.77;;;;;;;3.88;100.00;99468.41;5073172;28;20200;-68
2024/01/01 04:58:47;;;;;;;1.00;1.00;;;;;;;3.86;100.00;99465.00;5073070;28;20246;-68
2024/01/01 05:01:14;;;;;;;1.93;1.93;;;;;;;3.86;100.00;99463.31;5078069;28;20216;-68
2024/01/01 05:03:41;;;;;;;0.77;0.77;;;;;;;3.81;100.00;99459.97;5073207;28;20635;-67
2024/01/01 05:06:07;;;;;;;1.83;1.83;;;;;;;3.80;100.00;99470.09;5073518;28;20265;-68
2024/01/01 05:08:34;;;;;;;1.07;1.07;;;;;;;3.80;100.00;99463.31;5072978;28;20246;-67
2024/01/01 05:11:04;;;;;;;1.73;1.67;;;;;;;3.81;100.00;99467.56;5073772;28;20557;-68
2024/01/01 05:13:32;;;;;;;5.23;4.70;;;;;;;3.81;100.00;99470.09;5073342;28;20196;-68
2024/01/01 05:15:59;;;;;;;2.73;2.63;;;;;;;3.81;100.00;99472.63;5072488;28;20253;-68
2024/01/01 05:18:25;;;;;;;3.00;2.90;;;;;;;3.79;100.00;99469.22;5072272;28;20262;-68
2024/01/01 05:20:52;;;;;;;1.70;1.27;;;;;;;3.80;100.00;99476.00;5072472;28;20207;-68
2024/01/01 05:23:19;;;;;;;2.10;2.10;;;;;;;3.74;100.00;99459.97;5073007;28;20261;-68
2024/01/01 05:25:45;;;;;;;1.27;1.27;;;;;;;3.79;100.00;99469.22;5072420;28;20196;-68
2024/01/01 05:28:12;;;;;;;2.97;2.03;;;;;;;3.77;100.00;99470.94;5072409;28;20196;-68
2024/01/01 05:30:40;;;;;;;2.37;2.33;;;;;;;3.76;100.00;99459.09;5068792;28;20627;-68
2024/01/01 05:33:07;;;;;;;2.67;2.57;;;;;;;3.72;100.00;99462.47;5072424;28;20197;-68
2024/01/01 05:35:34;;;;;;;1.87;1.87;;;;;;;3.61;100.00;99438.88;5072081;28;20254;-68
2024/01/01 05:38:02;;;;;;;1.80;1.80;;;;;;;3.70;100.00;99464.19;5072106;28;20585;-68
2024/01/01 05:40:28;;;;;;;1.33;1.33;;;;;;;3.68;100.00;99460.81;5072338;28;20220;-68
2024/01/01 05:42:55;;;;;;;2.97;2.17;;;;;;;3.61;100.00;99454.91;5072859;28;20561;-67
2024/01/01 05:45:22;;;;;;;1.20;1.20;;;;;;;3.56;100.00;99458.28;5074963;28;20204;-68
2024/01/01 05:47:50;;;;;;;1.17;1.17;;;;;;;3.57;100.00;99462.50;5072362;28;20200;-68
2024/01/01 05:50:17;;;;;;;1.47;1.47;;;;;;;3.58;100.00;99454.06;5071734;28;20226;-68
2024/01/01 05:52:44;;;;;;;1.27;1.27;;;;;;;3.61;100.00;99459.13;5072046;28;20232;-68
2024/01/01 05:55:11;;;;;;;1.03;1.03;;;;;;;3.60;100.00;99458.28;5071914;28;20245;-68
2024/01/01 05:57:37;;;;;;;1.63;1.63;;;;;;;3.62;100.00;99458.28;5072032;28;20269;-69
2024/01/01 06:00:05;;;;;;;1.10;1.10;;;;;;;3.60;100.00;99457.44;5071521;28;20219;-68
2024/01/01 06:02:32;;;;;;;3.00;2.83;;;;;;;3.63;100.00;99454.91;5071827;28;20628;-68
2024/01/01 06:05:00;;;;;;;1.43;1.43;;;;;;;3.59;100.00;99443.06;5075756;28;20811;-68
2024/01/01 06:07:27;;;;;;;1.67;1.67;;;;;;;3.60;100.00;99453.22;5070273;28;20196;-68
2024/01/01 06:09:53;;;;;;;0.80;0.80;;;;;;;3.57;100.00;99452.38;5071708;28;20200;-68
2024/01/01 06:12:20;;;;;;;1.37;1.37;;;;;;;3.55;100.00;99451.56;5070310;28;20261;-67
2024/01/01 06:14:47;;;;;;;0.97;0.97;;;;;;;3.57;100.00;99452.38;5071636;28;20239;-67
2024/01/01 06:17:14;;;;;;;2.70;2.57;;;;;;;3.54;100.00;99452.38;5071633;28;20259;-67
2024/01/01 06:19:40;;;;;;;2.40;2.30;;;;;;;3.52;100.00;99446.47;5071137;28;20265;-67
2024/01/01 06:22:08;;;;;;;1.53;1.53;;;;;;;3.50;100.00;99458.28;5071666;28;20196;-68
2024/01/01 06:24:35;;;;;;;1.73;1.73;;;;;;;3.48;100.00;99462.53;5071610;28;20192;-68
2024/01/01 06:27:02;;;;;;;2.40;2.37;;;;;;;3.40;100.00;99460.00;5073608;28;20622;-68
2024/01/01 06:29:29;;;;;;;1.97;1.90;;;;;;;3.47;100.00;99470.97;5070568;28;20254;-67
2024/01/01 06:31:56;;;;;;;2.30;1.53;;;;;;;3.51;100.00;99477.72;5071593;28;20565;-67
2024/01/01 06:34:23;;;;;;;1.20;1.20;;;;;;;3.50;100.00;99460.81;5071889;28;20200;-67
2024/01/01 06:36:49;;;;;;;1.73;1.73;;;;;;;3.46;100.00;99469.28;5071534;28;20196;-68
2024/01/01 06:39:17;;;;;;;1.27;1.27;;;;;;;3.43;100.00;99476.88;5071219;28;20253;-68
2024/01/01 06:41:44;;;;;;;1.53;1.53;;;;;;;3.42;100.00;99472.69;5071091;28;20634;-68
2024/01/01 06:44:11;;;;;;;1.57;1.57;;;;;;;3.44;100.00;99469.28;5071158;28;20204;-68
2024/01/01 06:46:39;;;;;;;2.07;1.97;;;;;;;3.44;100.00;99460.84;5069916;28;20197;-68
2024/01/01 06:49:06;;;;;;;0.90;0.90;;;;;;;3.49;100.00;99474.38;5070736;28;20299;-68
2024/01/01 06:51:34;;;;;;;1.27;1.27;;;;;;;3.50;100.00;99473.50;5074965;28;20273;-68
2024/01/01 06:54:00;;;;;;;1.33;1.33;;;;;;;3.49;100.00;99474.38;5065657;28;20242;-67
2024/01/01 06:56:28;;;;;;;0.90;0.90;;;;;;;3.42;100.00;99462.53;5070808;28;20203;-67
2024/01/01 06:58:57;;;;;;;1.73;1.63;;;;;;;3.51;100.00;99480.25;5071038;28;20192;-67
2024/01/01 07:01:24;;;;;;;1.33;1.33;;;;;;;3.52;100.00;99479.44;5074791;28;20208;-67
2024/01/01 07:03:50;;;;;;;1.77;1.77;;;;;;;3.55;100.00;99469.28;5077411;28;20195;-67
2024/01/01 07:06:17;;;;;;;2.10;2.10;;;;;;;3.57;100.00;99475.19;5069580;28;20196;-68
2024/01/01 07:08:44;;;;;;;0.90;0.90;;;;;;;3.56;100.00;99483.63;5071126;28;20288;-68
2024/01/01 07:11:11;;;;;;;0.80;0.80;;;;;;;3.58;100.00;99480.28;5070698;28;20191;-67
2024/01/01 07:13:39;;;;;;;1.83;1.70;;;;;;;3.64;100.00;99476.88;5074366;28;20203;-67
2024/01/01 07:16:07;;;;;;;0.80;0.80;;;;;;;3.68;100.00;99486.19;5070597;28;20207;-68
2024/01/01 07:18:33;;;;;;;1.30;1.30;;;;;;;3.72;100.00;99481.94;5070867;28;20199;-68
2024/01/01 07:21:00;;;;;;;1.67;1.67;;;;;;;3.72;100.00;99469.28;5070639;28;20695;-68
2024/01/01 07:23:27;;;;;;;1.17;1.17;;;;;;;3.68;100.00;99450.69;5071230;28;20298;-69
2024/01/01 07:25:54;;;;;;;1.60;1.60;;;;;;;3.75;100.00;99462.47;5071001;28;20192;-68
2024/01/01 07:28:20;;;;;;;1.23;1.23;;;;;;;3.79;100.00;99459.09;5070708;28;20667;-68
2024/01/01 07:30:48;;;;;;;1.30;1.30;;;;;;;3.83;100.00;99465.84;5070849;28;20192;-68
2024/01/01 07:33:15;;;;;;;1.67;1.60;;;;;;;3.81;100.00;99465.03;5070798;28;20196;-68
2024/01/01 07:35:42;;;;;;;1.13;1.13;;;;;;;3.83;100.00;99468.41;5070727;28;20192;-68
2024/01/01 07:38:08;;;;;;;1.17;1.17;;;;;;;3.87;100.00;99467.53;5071703;28;20257;-68
2024/01/01 07:40:35;;;;;;;9.80;1.43;;;;;;;3.94;100.00;99451.44;5072266;28;20207;-68
2024/01/01 07:43:04;;;;;;;1.40;1.40;;;;;;;3.98;100.00;99455.66;5074707;28;20196;-68
2024/01/01 07:45:30;;;;;;;1.30;1.30;;;;;;;4.04;100.00;99445.50;5073909;28;20208;-68
2024/01/01 07:47:58;;;;;;;2.43;1.33;;;;;;;4.08;100.00;99451.41;5074817;28;20672;-68
2024/01/01 07:50:25;;;;;;;1.83;1.77;;;;;;;4.11;100.00;99451.38;5081230;28;20188;-68
2024/01/01 07:52:52;;;;;;;0.77;0.77;;;;;;;4.11;100.00;99431.94;5072452;28;20227;-68
2024/01/01 07:55:20;;;;;;;0.57;0.57;;;;;;;4.11;100.00;99431.94;5074597;28;20231;-68
2024/01/01 07:57:47;;;;;;;0.90;0.90;;;;;;;4.19;100.00;99430.25;5074540;28;20204;-68
2024/01/01 08:00:15;;;;;;;1.00;1.00;;;;;;;4.27;100.00;99431.88;5077180;28;20603;-68
2024/01/01 08:02:43;;;;;;;0.70;0.70;;;;;;;4.37;100.00;99428.44;5082468;28;20712;-68
2024/01/01 08:05:11;;;;;;;1.03;1.03;;;;;;;4.44;100.00;99435.19;5074753;28;20669;-70
2024/01/01 08:07:40;;;;;;;0.93;0.93;;;;;;;4.49;100.00;99438.56;5074042;28;20204;-70
2024/01/01 08:10:07;;;;;;;1.57;1.57;;;;;;;4.58;100.00;99434.28;5073391;28;20941;-71
2024/01/01 08:12:34;;;;;;;0.87;0.87;;;;;;;4.71;100.00;99435.03;5075141;28;20200;-71
2024/01/01 08:15:01;;;;;;;0.70;0.70;;;;;;;4.82;100.00;99430.72;5071276;28;20254;-71
2024/01/01 08:17:27;;;;;;;1.07;1.07;;;;;;;4.92;100.00;99434.88;5073389;28;20200;-71
2024/01/01 08:19:54;;;;;;;2.93;1.60;;;;;;;5.03;100.00;99430.59;5072786;28;20264;-71
2024/01/01 08:22:22;;;;;;;1.20;1.20;;;;;;;5.14;100.00;99435.56;5070954;28;20250;-71
2024/01/01 08:24:49;;;;;;;0.83;0.83;;;;;;;5.24;100.00;99432.09;5073568;28;20299;-71
2024/01/01 08:27:16;;;;;;;0.97;0.97;;;;;;;5.35;100.00;99430.31;5073213;28;20270;-68
2024/01/01 08:29:42;;;;;;;2.20;2.20;;;;;;;5.44;100.00;99434.47;5073989;28;20250;-68
2024/01/01 08:32:09;;;;;;;1.80;1.10;;;;;;;5.50;100.00;99436.97;5073399;28;20200;-67
2024/01/01 08:34:36;;;;;;;1.30;1.30;;;;;;;5.64;100.00;99437.69;5073105;28;20204;-68
2024/01/01 08:37:04;;;;;;;1.57;1.27;;;;;;;5.63;100.00;99426.66;5073916;28;20250;-67
2024/01/01 08:39:32;;;;;;;0.97;0.97;;;;;;;5.63;100.00;99395.28;5074179;28;20680;-67
2024/01/01 08:42:00;;;;;;;1.90;1.80;;;;;;;6.00;100.00;99439.88;5073728;28;20216;-68
2024/01/01 08:44:27;;;;;;;3.63;1.97;;;;;;;6.13;100.00;99438.88;5074151;28;20204;-68
2024/01/01 08:46:54;;;;;;;4.93;2.10;;;;;;;6.22;100.00;99423.50;5073824;28;20203;-68
2024/01/01 08:49:21;;;;;;;2.33;2.03;;;;;;;6.34;100.00;99422.50;5073795;28;20285;-68
2024/01/01 08:51:48;;;;;;;1.50;1.40;;;;;;;6.39;100.00;99400.38;5072540;28;20246;-67
2024/01/01 08:54:16;;;;;;;2.57;1.77;;;;;;;6.55;100.00;99406.09;5073526;28;20201;-67
2024/01/01 08:56:44;;;;;;;1.37;1.37;;;;;;;5.99;100.00;99293.16;5073734;28;20220;-68
2024/01/01 08:59:12;;;;;;;3.10;2.03;;;;;;;6.80;100.00;99425.25;5073518;28;20200;-68
2024/01/01 09:01:39;;;;;;;2.40;1.83;;;;;;;6.88;100.00;99418.34;5073630;28;20212;-67
2024/01/01 09:04:06;;;;;;;3.00;1.30;;;;;;;6.86;100.00;99399.69;5073326;28;20257;-68
2024/01/01 09:06:32;;;;;;;2.03;1.83;;;;;;;7.07;100.00;99412.09;5081813;28;20208;-69
2024/01/01 09:08:59;;;;;;;2.27;1.70;;;;;;;7.09;100.00;99405.25;5073191;28;20211;-67
2024/01/01 09:11:26;;;;;;;2.23;1.80;;;;;;;7.18;100.00;99405.09;5072998;28;20192;-68
2024/01/01 09:13:54;;;;;;;1.67;1.63;;;;;;;7.38;100.00;99403.06;5076185;28;20204;-68
2024/01/01 09:16:22;;;;;;;1.90;1.67;;;;;;;7.53;100.00;99393.47;5073570;28;20204;-68
2024/01/01 09:18:49;;;;;;;2.47;2.27;;;;;;;7.65;100.00;99390.69;5073283;28;20249;-68
2024/01/01 09:21:16;;;;;;;1.90;1.80;;;;;;;7.81;100.00;99387.00;5076654;28;20216;-68
2024/01/01 09:23:43;;;;;;;2.10;2.07;;;;;;;7.85;100.00;99389.44;5073250;28;20196;-68
2024/01/01 09:26:09;;;;;;;3.20;2.40;;;;;;;7.98;100.00;99382.38;5072819;28;20196;-68
2024/01/01 09:28:36;;;;;;;2.43;2.23;;;;;;;8.18;100.00;99387.91;5072640;28;20668;-69
2024/01/01 09:31:05;;;;;;;3.57;2.07;;;;;;;8.25;100.00;99368.22;5073173;28;20257;-68
2024/01/01 09:33:31;;;;;;;2.90;2.67;;;;;;;8.38;100.00;99375.63;5078994;28;20272;-68
2024/01/01 09:35:58;;;;;;;1.90;1.50;;;;;;;8.44;100.00;99379.75;5072649;28;20196;-68
2024/01/01 09:38:25;;;;;;;1.60;1.53;;;;;;;8.49;100.00;99387.31;5072532;28;20317;-67
2024/01/01 09:40:55;;;;;;;2.97;2.27;;;;;;;8.59;100.00;99378.56;5072350;28;20215;-68
2024/01/01 09:43:21;;;;;;;3.07;2.20;;;;;;;8.78;100.00;99379.84;5074482;28;20200;-68
2024/01/01 09:45:48;;;;;;;5.40;1.40;;;;;;;8.90;100.00;99379.53;5072217;28;20203;-68
2024/01/01 09:48:17;;;;;;;2.30;2.20;;;;;;;9.15;100.00;99378.06;5076567;28;20200;-69
2024/01/01 09:50:44;;;;;;;3.20;2.90;;;;;;;8.94;100.00;99332.56;5072008;28;20631;-69
2024/01/01 09:53:11;;;;;;;4.97;2.67;;;;;;;9.33;100.00;99369.94;5071506;28;20318;-68
2024/01/01 09:55:39;;;;;;;1.97;1.87;;;;;;;9.37;100.00;99363.03;5072032;28;20249;-69
2024/01/01 09:58:06;;;;;;;2.37;2.13;;;;;;;9.50;100.00;99364.34;5071873;28;20229;-68
2024/01/01 10:00:32;;;;;;;2.70;2.50;;;;;;;9.59;100.00;99370.97;5071613;28;20253;-68
2024/01/01 10:03:10;;;;;;;2.80;2.30;;;;;;;9.61;100.00;99358.97;5066957;28;20630;-68
2024/01/01 10:05:39;;;;;;;8.33;2.20;;;;;;;9.77;100.00;99368.75;5081380;28;20199;-67
2024/01/01 10:08:11;;;;;;;2.30;1.33;;;;;;;9.82;100.00;99358.41;5072976;28;20192;-68
2024/01/01 10:10:38;;;;;;;3.77;1.70;;;;;;;9.85;100.00;99348.06;5074680;28;20261;-68
2024/01/01 10:13:08;;;;;;;3.13;2.57;;;;;;;9.85;100.00;99348.06;5070714;28;20282;-69
2024/01/01 10:15:37;;;;;;;4.70;3.57;;;;;;;9.91;100.00;99342.78;5072815;28;20204;-68
2024/01/01 10:18:09;;;;;;;2.50;2.30;;;;;;;9.96;100.00;99340.91;5073188;28;20257;-69
2024/01/01 10:20:36;;;;;;;1.93;1.83;;;;;;;10.00;100.00;99339.94;5074976;28;20239;-68
2024/01/01 10:23:26;;;;;;;1.73;1.57;;;;;;;9.97;100.00;99312.72;5076306;28;20195;-65
2024/01/01 10:26:03;;;;;;;2.40;2.20;;;;;;;10.00;100.00;99301.53;5070783;28;20242;-67
2024/01/01 10:28:31;;;;;;;2.00;1.80;;;;;;;10.08;100.00;99320.06;5072334;28;20615;-68
2024/01/01 10:30:58;;;;;;;3.83;2.00;;;;;;;10.14;100.00;99307.13;5066848;28;20279;-69
2024/01/01 10:33:26;;;;;;;5.13;3.93;;;;;;;10.14;100.00;99304.56;5076177;28;20207;-69
2024/01/01 10:35:53;;;;;;;3.43;3.00;;;;;;;10.18;100.00;99301.00;5071199;28;20210;-67
2024/01/01 10:38:25;;;;;;;2.70;2.40;;;;;;;10.13;100.00;99313.09;5071536;28;20202;-69
2024/01/01 10:40:55;;;;;;;3.63;3.37;;;;;;;10.11;100.00;99304.63;5070373;28;20204;-68
2024/01/01 10:43:25;;;;;;;4.00;3.10;;;;;;;10.18;100.00;99305.31;5077947;28;20207;-68
2024/01/01 10:45:53;;;;;;;5.70;3.87;;;;;;;10.25;100.00;99307.63;5075694;28;20284;-68
2024/01/01 10:48:21;;;;;;;2.93;2.73;;;;;;;10.30;100.00;99290.41;5081759;28;20648;-68
2024/01/01 10:51:04;;;;;;;3.30;3.00;;;;;;;10.38;100.00;99285.88;5069536;28;20743;-68
2024/01/01 10:53:48;;;;;;;3.23;3.00;;;;;;;10.41;100.00;99288.34;5070870;28;20576;-69
2024/01/01 10:56:27;;;;;;;1.60;1.60;;;;;;;10.57;100.00;99287.84;5069297;28;20208;-69
2024/01/01 10:59:07;;;;;;;2.17;2.07;;;;;;;10.60;100.00;99287.78;5068534;28;20207;-69
2024/01/01 11:01:37;;;;;;;2.13;2.03;;;;;;;10.64;100.00;99285.03;5068055;28;20679;-69
2024/01/01 11:04:05;;;;;;;2.83;2.63;;;;;;;10.73;100.00;99283.91;5070167;28;20257;-68
2024/01/01 11:06:35;;;;;;;2.50;2.40;;;;;;;10.76;100.00;99273.56;5069078;28;20231;-69
2024/01/01 11:09:34;;;;;;;2.70;2.50;;;;;;;10.86;100.00;99262.94;5069605;28;20211;-68
2024/01/01 11:12:02;;;;;;;3.43;3.00;;;;;;;10.95;100.00;99265.19;5070404;28;20679;-68
2024/01/01 11:14:31;;;;;;;3.17;2.00;;;;;;;11.03;100.00;99263.22;5069338;28;20195;-69
2024/01/01 11:17:02;;;;;;;3.77;2.77;;;;;;;11.11;100.00;99259.56;5073991;28;20204;-69
2024/01/01 11:19:42;;;;;;;3.30;3.10;;;;;;;11.13;100.00;99256.03;5073766;28;20646;-68
2024/01/01 11:22:30;;;;;;;2.27;2.17;;;;;;;11.22;100.00;99248.00;5066492;28;20320;-69
2024/01/01 11:25:03;;;;;;;4.63;3.03;;;;;;;11.31;100.00;99242.56;5071756;28;20676;-69
2024/01/01 11:27:31;;;;;;;9.17;2.90;;;;;;;11.38;100.00;99231.19;5077215;28;20656;-69
2024/01/01 11:30:02;;;;;;;2.83;2.67;;;;;;;11.42;100.00;99216.50;5077782;28;20257;-69
2024/01/01 11:32:29;;;;;;;26.13;12.38;;;;;;;11.46;100.00;99211.22;5076150;28;20428;-65
2024/01/01 11:35:07;;;;;;;11.07;6.88;;;;;;;11.78;100.00;99207.47;5073777;28;20913;-64